sensor_id;sensor_type;location;lat;lon;timestamp;pressure;altitude;pressure_sealevel;temperature;humidity
6030;BME280;3043;42.682;23.376;2023-03-20T00:01:26;95270.94;;;8.12;100.00
6030;BME280;3043;42.682;23.376;2023-03-20T00:03:54;95271.78;;;8.11;100.00
6030;BME280;3043;42.682;23.376;2023-03-20T00:06:24;95271.00;;;8.06;100.00
6030;BME280;3043;42.682;23.376;2023-03-20T00:08:52;95260.03;;;7.85;100.00
6030;BME280;3043;42.682;23.376;2023-03-20T00:11:29;95260.16;;;7.73;100.00
6030;BME280;3043;42.682;23.376;2023-03-20T00:14:09;95260.91;;;7.85;100.00
6030;BME280;3043;42.682;23.376;2023-03-20T00:16:37;95260.16;;;7.74;100.00
6030;BME280;3043;42.682;23.376;2023-03-20T00:19:04;95260.19;;;7.71;100.00
6030;BME280;3043;42.682;23.376;2023-03-20T00:21:30;95254.19;;;7.69;100.00
6030;BME280;3043;42.682;23.376;2023-03-20T00:23:56;95252.44;;;7.71;100.00
6030;BME280;3043;42.682;23.376;2023-03-20T00:26:29;95249.09;;;7.63;100.00
6030;BME280;3043;42.682;23.376;2023-03-20T00:28:57;95257.81;;;7.47;100.00
6030;BME280;3043;42.682;23.376;2023-03-20T00:31:27;95256.06;;;7.49;100.00
6030;BME280;3043;42.682;23.376;2023-03-20T00:33:55;95247.50;;;7.50;100.00
6030;BME280;3043;42.682;23.376;2023-03-20T00:36:22;95254.38;;;7.48;100.00
6030;BME280;3043;42.682;23.376;2023-03-20T00:38:48;95251.00;;;7.40;100.00
6030;BME280;3043;42.682;23.376;2023-03-20T00:41:26;95244.16;;;7.39;100.00
6030;BME280;3043;42.682;23.376;2023-03-20T00:44:01;95234.78;;;7.34;100.00
6030;BME280;3043;42.682;23.376;2023-03-20T00:46:37;95242.56;;;7.26;100.00
6030;BME280;3043;42.682;23.376;2023-03-20T00:49:03;95242.63;;;7.20;100.00
6030;BME280;3043;42.682;23.376;2023-03-20T00:51:29;95245.19;;;7.17;100.00
6030;BME280;3043;42.682;23.376;2023-03-20T00:53:54;95246.06;;;7.13;100.00
6030;BME280;3043;42.682;23.376;2023-03-20T00:56:30;95234.94;;;7.09;100.00
6030;BME280;3043;42.682;23.376;2023-03-20T00:58:58;95240.94;;;7.13;100.00
6030;BME280;3043;42.682;23.376;2023-03-20T01:01:24;95238.34;;;7.13;100.00
6030;BME280;3043;42.682;23.376;2023-03-20T01:03:49;95233.22;;;7.13;100.00
6030;BME280;3043;42.682;23.376;2023-03-20T01:06:15;95235.75;;;7.16;100.00
6030;BME280;3043;42.682;23.376;2023-03-20T01:08:43;95225.47;;;7.16;100.00
6030;BME280;3043;42.682;23.376;2023-03-20T01:11:09;95225.47;;;7.16;100.00
6030;BME280;3043;42.682;23.376;2023-03-20T01:13:37;95224.56;;;7.18;100.00
6030;BME280;3043;42.682;23.376;2023-03-20T01:16:03;95230.56;;;7.22;100.00
6030;BME280;3043;42.682;23.376;2023-03-20T01:18:28;95223.69;;;7.24;100.00
6030;BME280;3043;42.682;23.376;2023-03-20T01:20:54;95215.94;;;7.25;100.00
6030;BME280;3043;42.682;23.376;2023-03-20T01:23:20;95205.66;;;7.24;100.00
6030;BME280;3043;42.682;23.376;2023-03-20T01:25:48;95213.41;;;7.24;100.00
6030;BME280;3043;42.682;23.376;2023-03-20T01:28:20;95220.25;;;7.22;100.00
6030;BME280;3043;42.682;23.376;2023-03-20T01:30:45;95216.84;;;7.23;100.00
6030;BME280;3043;42.682;23.376;2023-03-20T01:33:20;95221.13;;;7.21;100.00
6030;BME280;3043;42.682;23.376;2023-03-20T01:35:48;95220.31;;;7.16;100.00
6030;BME280;3043;42.682;23.376;2023-03-20T01:38:18;95227.25;;;7.05;100.00
6030;BME280;3043;42.682;23.376;2023-03-20T01:41:04;95223.91;;;6.97;100.00
6030;BME280;3043;42.682;23.376;2023-03-20T01:43:32;95229.16;;;6.85;100.00
6030;BME280;3043;42.682;23.376;2023-03-20T01:46:12;95228.34;;;6.74;100.00
6030;BME280;3043;42.682;23.376;2023-03-20T01:51:16;95239.53;;;6.70;100.00
6030;BME280;3043;42.682;23.376;2023-03-20T01:53:43;95228.38;;;6.69;100.00
6030;BME280;3043;42.682;23.376;2023-03-20T01:56:11;95230.97;;;6.68;100.00
6030;BME280;3043;42.682;23.376;2023-03-20T01:58:55;95237.78;;;6.70;100.00
6030;BME280;3043;42.682;23.376;2023-03-20T02:01:23;95230.97;;;6.68;100.00
6030;BME280;3043;42.682;23.376;2023-03-20T02:03:52;95229.22;;;6.67;100.00
6030;BME280;3043;42.682;23.376;2023-03-20T02:06:21;95225.81;;;6.66;100.00
6030;BME280;3043;42.682;23.376;2023-03-20T02:08:49;95230.06;;;6.72;100.00
6030;BME280;3043;42.682;23.376;2023-03-20T02:11:18;95219.75;;;6.75;100.00
6030;BME280;3043;42.682;23.376;2023-03-20T02:13:44;95220.63;;;6.77;100.00
6030;BME280;3043;42.682;23.376;2023-03-20T02:16:12;95219.91;;;6.49;100.00
6030;BME280;3043;42.682;23.376;2023-03-20T02:18:40;95219.16;;;6.28;100.00
6030;BME280;3043;42.682;23.376;2023-03-20T02:51:09;95215.84;;;6.05;100.00
6030;BME280;3043;42.682;23.376;2023-03-20T02:53:51;95213.28;;;6.03;100.00
6030;BME280;3043;42.682;23.376;2023-03-20T02:56:26;95209.88;;;6.01;100.00
6030;BME280;3043;42.682;23.376;2023-03-20T03:01:33;95206.47;;;5.96;100.00
6030;BME280;3043;42.682;23.376;2023-03-20T03:04:03;95215.88;;;5.96;100.00
6030;BME280;3043;42.682;23.376;2023-03-20T03:06:35;95203.91;;;5.89;100.00
6030;BME280;3043;42.682;23.376;2023-03-20T03:09:10;95208.22;;;5.84;100.00
6030;BME280;3043;42.682;23.376;2023-03-20T03:11:42;95214.19;;;5.77;100.00
6030;BME280;3043;42.682;23.376;2023-03-20T03:14:16;95209.09;;;5.68;100.00
6030;BME280;3043;42.682;23.376;2023-03-20T03:16:44;95212.53;;;5.67;100.00
6030;BME280;3043;42.682;23.376;2023-03-20T03:19:15;95209.09;;;5.65;100.00
6030;BME280;3043;42.682;23.376;2023-03-20T03:21:44;95207.41;;;5.67;100.00
6030;BME280;3043;42.682;23.376;2023-03-20T03:24:26;95195.41;;;5.66;100.00
6030;BME280;3043;42.682;23.376;2023-03-20T03:26:55;95200.50;;;5.70;100.00
6030;BME280;3043;42.682;23.376;2023-03-20T03:29:22;95209.06;;;5.74;100.00
6030;BME280;3043;42.682;23.376;2023-03-20T03:31:48;95215.91;;;5.72;100.00
6030;BME280;3043;42.682;23.376;2023-03-20T03:34:16;95209.09;;;5.71;100.00
6030;BME280;3043;42.682;23.376;2023-03-20T03:39:26;95212.53;;;5.67;100.00
6030;BME280;3043;42.682;23.376;2023-03-20T03:45:07;95220.25;;;5.39;100.00
6030;BME280;3043;42.682;23.376;2023-03-20T03:47:39;95205.72;;;5.47;100.00
6030;BME280;3043;42.682;23.376;2023-03-20T03:50:14;95206.59;;;5.42;100.00
6030;BME280;3043;42.682;23.376;2023-03-20T03:52:40;95207.41;;;5.45;100.00
6030;BME280;3043;42.682;23.376;2023-03-20T03:55:10;95208.31;;;5.29;100.00
6030;BME280;3043;42.682;23.376;2023-03-20T03:57:44;95210.91;;;5.08;100.00
6030;BME280;3043;42.682;23.376;2023-03-20T04:00:13;95208.34;;;4.87;100.00
6030;BME280;3043;42.682;23.376;2023-03-20T04:02:42;95210.91;;;4.80;100.00
6030;BME280;3043;42.682;23.376;2023-03-20T04:05:09;95207.47;;;4.70;100.00
6030;BME280;3043;42.682;23.376;2023-03-20T04:07:35;95198.91;;;4.89;100.00
6030;BME280;3043;42.682;23.376;2023-03-20T04:10:01;95190.38;;;4.81;100.00
6030;BME280;3043;42.682;23.376;2023-03-20T04:12:40;95188.66;;;4.74;100.00
6030;BME280;3043;42.682;23.376;2023-03-20T04:15:06;95195.50;;;4.93;100.00
6030;BME280;3043;42.682;23.376;2023-03-20T04:17:32;95189.50;;;5.00;100.00
6030;BME280;3043;42.682;23.376;2023-03-20T04:19:57;95191.22;;;5.12;100.00
6030;BME280;3043;42.682;23.376;2023-03-20T04:22:23;95193.78;;;5.19;100.00
6030;BME280;3043;42.682;23.376;2023-03-20T04:24:49;95189.47;;;5.41;100.00
6030;BME280;3043;42.682;23.376;2023-03-20T04:27:15;95186.88;;;5.48;100.00
6030;BME280;3043;42.682;23.376;2023-03-20T04:29:41;95188.63;;;5.46;100.00
6030;BME280;3043;42.682;23.376;2023-03-20T04:32:07;95189.44;;;5.44;100.00
6030;BME280;3043;42.682;23.376;2023-03-20T04:34:33;95190.34;;;5.26;100.00
6030;BME280;3043;42.682;23.376;2023-03-20T04:36:58;95193.78;;;5.31;100.00
6030;BME280;3043;42.682;23.376;2023-03-20T04:39:26;95192.00;;;5.54;100.00
6030;BME280;3043;42.682;23.376;2023-03-20T04:41:51;95200.50;;;5.75;100.00
6030;BME280;3043;42.682;23.376;2023-03-20T04:44:17;95198.78;;;5.92;100.00
6030;BME280;3043;42.682;23.376;2023-03-20T04:46:42;95197.88;;;6.00;100.00
6030;BME280;3043;42.682;23.376;2023-03-20T04:49:08;95208.16;;;5.97;100.00
6030;BME280;3043;42.682;23.376;2023-03-20T04:51:33;95213.25;;;6.18;100.00
6030;BME280;3043;42.682;23.376;2023-03-20T04:53:58;95206.28;;;6.32;100.00
6030;BME280;3043;42.682;23.376;2023-03-20T04:56:24;95213.81;;;6.67;100.00
6030;BME280;3043;42.682;23.376;2023-03-20T04:58:49;95222.19;;;6.93;100.00
6030;BME280;3043;42.682;23.376;2023-03-20T05:01:15;95223.84;;;7.06;100.00
6030;BME280;3043;42.682;23.376;2023-03-20T05:03:40;95226.16;;;7.38;100.00
6030;BME280;3043;42.682;23.376;2023-03-20T05:06:06;95229.34;;;7.62;100.00
6030;BME280;3043;42.682;23.376;2023-03-20T05:08:32;95226.47;;;7.92;100.00
6030;BME280;3043;42.682;23.376;2023-03-20T05:10:57;95233.25;;;7.99;100.00
6030;BME280;3043;42.682;23.376;2023-03-20T05:13:22;95234.94;;;8.03;100.00
6030;BME280;3043;42.682;23.376;2023-03-20T05:15:48;95238.28;;;8.08;100.00
6030;BME280;3043;42.682;23.376;2023-03-20T05:18:13;95232.19;;;8.17;100.00
6030;BME280;3043;42.682;23.376;2023-03-20T05:20:39;95239.81;;;8.30;100.00
6030;BME280;3043;42.682;23.376;2023-03-20T05:23:05;95241.44;;;8.37;100.00
6030;BME280;3043;42.682;23.376;2023-03-20T05:25:30;95253.00;;;8.73;100.00
6030;BME280;3043;42.682;23.376;2023-03-20T05:27:56;95245.28;;;8.71;100.00
6030;BME280;3043;42.682;23.376;2023-03-20T05:30:21;95245.19;;;8.79;100.00
6030;BME280;3043;42.682;23.376;2023-03-20T05:32:50;95244.16;;;8.90;100.00
6030;BME280;3043;42.682;23.376;2023-03-20T05:35:16;95248.22;;;9.08;100.00
6030;BME280;3043;42.682;23.376;2023-03-20T05:37:42;95248.91;;;9.18;100.00
6030;BME280;3043;42.682;23.376;2023-03-20T05:40:11;95257.09;;;9.44;100.00
6030;BME280;3043;42.682;23.376;2023-03-20T05:42:36;95252.69;;;9.50;100.00
6030;BME280;3043;42.682;23.376;2023-03-20T05:45:02;95249.84;;;9.67;100.00
6030;BME280;3043;42.682;23.376;2023-03-20T05:47:27;95253.16;;;9.75;100.00
6030;BME280;3043;42.682;23.376;2023-03-20T05:49:53;95245.47;;;10.19;100.00
6030;BME280;3043;42.682;23.376;2023-03-20T05:52:18;95253.13;;;10.23;100.00
6030;BME280;3043;42.682;23.376;2023-03-20T05:54:44;95258.94;;;10.36;100.00
6030;BME280;3043;42.682;23.376;2023-03-20T05:57:09;95262.59;;;10.67;100.00
6030;BME280;3043;42.682;23.376;2023-03-20T05:59:34;95252.00;;;11.17;100.00
6030;BME280;3043;42.682;23.376;2023-03-20T06:02:00;95258.19;;;11.48;100.00
6030;BME280;3043;42.682;23.376;2023-03-20T06:04:25;95258.66;;;11.65;99.76
6030;BME280;3043;42.682;23.376;2023-03-20T06:06:51;95252.06;;;11.87;97.70
6030;BME280;3043;42.682;23.376;2023-03-20T06:09:16;95253.34;;;12.03;97.11
6030;BME280;3043;42.682;23.376;2023-03-20T06:11:41;95255.53;;;11.86;96.76
6030;BME280;3043;42.682;23.376;2023-03-20T06:14:07;95262.41;;;12.21;95.47
6030;BME280;3043;42.682;23.376;2023-03-20T06:16:32;95256.41;;;12.49;93.24
6030;BME280;3043;42.682;23.376;2023-03-20T06:18:58;95258.31;;;12.74;92.14
6030;BME280;3043;42.682;23.376;2023-03-20T06:21:23;95253.03;;;12.77;90.40
6030;BME280;3043;42.682;23.376;2023-03-20T06:23:49;95253.03;;;12.15;94.00
6030;BME280;3043;42.682;23.376;2023-03-20T06:26:14;95260.19;;;12.69;91.54
6030;BME280;3043;42.682;23.376;2023-03-20T06:28:40;95256.38;;;12.82;90.30
6030;BME280;3043;42.682;23.376;2023-03-20T06:31:06;95254.84;;;13.04;89.21
6030;BME280;3043;42.682;23.376;2023-03-20T06:33:33;95260.28;;;13.79;85.55
6030;BME280;3043;42.682;23.376;2023-03-20T06:35:58;95260.94;;;14.10;82.46
6030;BME280;3043;42.682;23.376;2023-03-20T06:38:24;95255.84;;;14.07;81.66
6030;BME280;3043;42.682;23.376;2023-03-20T06:40:49;95264.25;;;13.63;82.49
6030;BME280;3043;42.682;23.376;2023-03-20T06:43:15;95254.44;;;14.23;82.34
6030;BME280;3043;42.682;23.376;2023-03-20T06:45:40;95261.16;;;14.55;80.74
6030;BME280;3043;42.682;23.376;2023-03-20T06:48:07;95256.91;;;14.75;79.32
6030;BME280;3043;42.682;23.376;2023-03-20T06:50:32;95259.19;;;14.61;78.34
6030;BME280;3043;42.682;23.376;2023-03-20T06:52:58;95261.91;;;14.81;77.94
6030;BME280;3043;42.682;23.376;2023-03-20T06:55:23;95250.38;;;15.11;76.45
6030;BME280;3043;42.682;23.376;2023-03-20T06:57:49;95249.56;;;15.75;73.06
6030;BME280;3043;42.682;23.376;2023-03-20T07:00:15;95248.94;;;15.90;68.96
6030;BME280;3043;42.682;23.376;2023-03-20T07:02:40;95246.34;;;16.11;69.66
6030;BME280;3043;42.682;23.376;2023-03-20T07:05:06;95241.78;;;16.57;67.38
6030;BME280;3043;42.682;23.376;2023-03-20T07:07:32;95239.94;;;16.98;65.24
6030;BME280;3043;42.682;23.376;2023-03-20T07:09:58;95251.03;;;17.21;63.15
6030;BME280;3043;42.682;23.376;2023-03-20T07:12:23;95241.00;;;17.68;60.88
6030;BME280;3043;42.682;23.376;2023-03-20T07:14:52;95235.91;;;18.18;57.64
6030;BME280;3043;42.682;23.376;2023-03-20T07:17:18;95245.75;;;18.30;56.19
6030;BME280;3043;42.682;23.376;2023-03-20T07:19:44;95243.09;;;18.65;54.86
6030;BME280;3043;42.682;23.376;2023-03-20T07:22:19;95240.94;;;18.39;55.37
6030;BME280;3043;42.682;23.376;2023-03-20T07:24:45;95231.13;;;18.60;54.46
6030;BME280;3043;42.682;23.376;2023-03-20T07:27:11;95227.69;;;19.56;52.28
6030;BME280;3043;42.682;23.376;2023-03-20T07:29:36;95223.81;;;19.14;52.84
6030;BME280;3043;42.682;23.376;2023-03-20T07:32:02;95228.88;;;19.34;52.07
6030;BME280;3043;42.682;23.376;2023-03-20T07:34:27;95229.69;;;19.51;50.29
6030;BME280;3043;42.682;23.376;2023-03-20T07:36:53;95224.97;;;19.41;49.67
6030;BME280;3043;42.682;23.376;2023-03-20T07:39:18;95232.91;;;19.87;48.93
6030;BME280;3043;42.682;23.376;2023-03-20T07:41:44;95236.44;;;20.17;49.40
6030;BME280;3043;42.682;23.376;2023-03-20T07:44:09;95237.22;;;19.88;48.51
6030;BME280;3043;42.682;23.376;2023-03-20T07:46:35;95243.34;;;20.33;47.66
6030;BME280;3043;42.682;23.376;2023-03-20T07:49:01;95239.50;;;19.94;47.23
6030;BME280;3043;42.682;23.376;2023-03-20T07:51:26;95236.75;;;20.56;47.08
6030;BME280;3043;42.682;23.376;2023-03-20T07:53:52;95237.69;;;20.55;47.20
6030;BME280;3043;42.682;23.376;2023-03-20T07:56:17;95226.94;;;20.73;47.24
6030;BME280;3043;42.682;23.376;2023-03-20T07:58:42;95230.97;;;20.79;46.00
6030;BME280;3043;42.682;23.376;2023-03-20T08:01:08;95240.78;;;21.19;45.65
6030;BME280;3043;42.682;23.376;2023-03-20T08:03:33;95230.69;;;21.54;44.00
6030;BME280;3043;42.682;23.376;2023-03-20T08:05:59;95232.97;;;21.86;43.25
6030;BME280;3043;42.682;23.376;2023-03-20T08:08:26;95235.13;;;21.94;42.43
6030;BME280;3043;42.682;23.376;2023-03-20T08:10:51;95227.50;;;21.89;41.86
6030;BME280;3043;42.682;23.376;2023-03-20T08:13:16;95238.09;;;21.61;43.16
6030;BME280;3043;42.682;23.376;2023-03-20T08:15:42;95233.94;;;21.71;42.37
6030;BME280;3043;42.682;23.376;2023-03-20T08:18:07;95233.59;;;22.04;42.45
6030;BME280;3043;42.682;23.376;2023-03-20T08:20:33;95229.44;;;22.00;41.39
6030;BME280;3043;42.682;23.376;2023-03-20T08:22:58;95229.59;;;22.37;41.49
6030;BME280;3043;42.682;23.376;2023-03-20T08:25:24;95235.13;;;22.59;41.53
6030;BME280;3043;42.682;23.376;2023-03-20T08:27:50;95235.47;;;22.28;40.93
6030;BME280;3043;42.682;23.376;2023-03-20T08:30:15;95233.66;;;22.55;41.70
6030;BME280;3043;42.682;23.376;2023-03-20T08:32:41;95232.41;;;23.11;40.63
6030;BME280;3043;42.682;23.376;2023-03-20T08:35:07;95241.75;;;23.78;39.93
6030;BME280;3043;42.682;23.376;2023-03-20T08:37:34;95236.06;;;24.07;39.14
6030;BME280;3043;42.682;23.376;2023-03-20T08:40:00;95242.19;;;24.08;38.84
6030;BME280;3043;42.682;23.376;2023-03-20T08:42:25;95237.38;;;24.60;37.65
6030;BME280;3043;42.682;23.376;2023-03-20T08:44:51;95236.56;;;24.94;37.36
6030;BME280;3043;42.682;23.376;2023-03-20T08:47:17;95231.56;;;25.46;36.36
6030;BME280;3043;42.682;23.376;2023-03-20T08:49:42;95227.19;;;25.78;35.94
6030;BME280;3043;42.682;23.376;2023-03-20T08:52:08;95230.78;;;26.10;34.91
6030;BME280;3043;42.682;23.376;2023-03-20T08:54:33;95223.53;;;27.17;33.49
6030;BME280;3043;42.682;23.376;2023-03-20T08:56:59;95226.41;;;26.84;33.97
6030;BME280;3043;42.682;23.376;2023-03-20T08:59:24;95224.09;;;26.59;35.23
6030;BME280;3043;42.682;23.376;2023-03-20T09:01:50;95222.25;;;25.96;33.97
6030;BME280;3043;42.682;23.376;2023-03-20T09:04:16;95225.31;;;26.66;32.60
6030;BME280;3043;42.682;23.376;2023-03-20T09:06:42;95220.25;;;26.31;33.74
6030;BME280;3043;42.682;23.376;2023-03-20T09:09:10;95211.81;;;25.39;34.40
6030;BME280;3043;42.682;23.376;2023-03-20T09:11:39;95221.84;;;26.11;33.43
6030;BME280;3043;42.682;23.376;2023-03-20T09:14:06;95217.53;;;26.10;33.24
6030;BME280;3043;42.682;23.376;2023-03-20T09:16:31;95207.25;;;26.49;32.03
6030;BME280;3043;42.682;23.376;2023-03-20T09:18:57;95207.66;;;27.06;31.87
6030;BME280;3043;42.682;23.376;2023-03-20T09:21:22;95200.81;;;27.24;31.40
6030;BME280;3043;42.682;23.376;2023-03-20T09:23:48;95199.56;;;26.66;32.03
6030;BME280;3043;42.682;23.376;2023-03-20T09:26:13;95193.38;;;27.48;31.45
6030;BME280;3043;42.682;23.376;2023-03-20T09:28:39;95195.31;;;27.46;31.55
6030;BME280;3043;42.682;23.376;2023-03-20T09:31:04;95194.69;;;28.12;30.54
6030;BME280;3043;42.682;23.376;2023-03-20T09:33:30;95190.78;;;28.07;30.15
6030;BME280;3043;42.682;23.376;2023-03-20T09:35:56;95198.13;;;27.84;30.45
6030;BME280;3043;42.682;23.376;2023-03-20T09:38:21;95194.13;;;28.18;30.26
6030;BME280;3043;42.682;23.376;2023-03-20T09:41:02;95190.19;;;28.03;30.01
6030;BME280;3043;42.682;23.376;2023-03-20T09:51:54;95157.56;;;27.22;30.63
6030;BME280;3043;42.682;23.376;2023-03-20T09:54:39;95157.25;;;27.45;29.96
6030;BME280;3043;42.682;23.376;2023-03-20T09:57:05;95148.00;;;27.10;30.83
6030;BME280;3043;42.682;23.376;2023-03-20T09:59:37;95133.97;;;26.78;30.86
6030;BME280;3043;42.682;23.376;2023-03-20T10:02:16;95138.13;;;26.71;31.22
6030;BME280;3043;42.682;23.376;2023-03-20T10:04:50;95135.22;;;27.04;31.04
6030;BME280;3043;42.682;23.376;2023-03-20T10:07:18;95121.28;;;27.21;30.69
6030;BME280;3043;42.682;23.376;2023-03-20T10:09:44;95116.81;;;27.42;30.21
6030;BME280;3043;42.682;23.376;2023-03-20T10:12:29;95111.22;;;26.85;30.18
6030;BME280;3043;42.682;23.376;2023-03-20T10:26:11;95088.94;;;26.35;31.54
6030;BME280;3043;42.682;23.376;2023-03-20T10:28:58;95095.81;;;25.85;32.59
6030;BME280;3043;42.682;23.376;2023-03-20T10:39:32;95083.78;;;26.75;31.35
6030;BME280;3043;42.682;23.376;2023-03-20T10:42:02;95077.69;;;27.23;30.11
6030;BME280;3043;42.682;23.376;2023-03-20T10:44:35;95074.28;;;27.12;30.43
6030;BME280;3043;42.682;23.376;2023-03-20T10:47:04;95071.59;;;27.32;30.35
6030;BME280;3043;42.682;23.376;2023-03-20T10:49:42;95072.31;;;27.14;31.15
6030;BME280;3043;42.682;23.376;2023-03-20T10:52:16;95065.00;;;27.36;30.01
6030;BME280;3043;42.682;23.376;2023-03-20T10:54:45;95054.78;;;27.32;29.87
6030;BME280;3043;42.682;23.376;2023-03-20T10:57:17;95054.69;;;26.53;31.03
6030;BME280;3043;42.682;23.376;2023-03-20T10:59:47;95055.97;;;26.79;30.91
6030;BME280;3043;42.682;23.376;2023-03-20T11:02:16;95047.69;;;26.52;30.98
6030;BME280;3043;42.682;23.376;2023-03-20T11:04:42;95045.59;;;25.93;31.56
6030;BME280;3043;42.682;23.376;2023-03-20T11:07:31;95042.03;;;25.83;31.68
6030;BME280;3043;42.682;23.376;2023-03-20T11:12:31;95031.41;;;26.36;31.15
6030;BME280;3043;42.682;23.376;2023-03-20T11:15:13;95035.66;;;26.48;31.31
6030;BME280;3043;42.682;23.376;2023-03-20T11:17:39;95025.47;;;26.53;30.73
6030;BME280;3043;42.682;23.376;2023-03-20T11:20:04;95022.56;;;26.56;32.10
6030;BME280;3043;42.682;23.376;2023-03-20T11:22:31;95023.66;;;26.74;30.10
6030;BME280;3043;42.682;23.376;2023-03-20T11:24:59;95023.00;;;26.81;30.54
6030;BME280;3043;42.682;23.376;2023-03-20T11:27:30;95013.56;;;26.98;30.67
6030;BME280;3043;42.682;23.376;2023-03-20T11:29:56;95009.09;;;27.08;29.96
6030;BME280;3043;42.682;23.376;2023-03-20T11:32:27;95000.31;;;26.77;30.67
6030;BME280;3043;42.682;23.376;2023-03-20T11:34:55;94988.69;;;26.69;29.36
6030;BME280;3043;42.682;23.376;2023-03-20T11:37:28;94987.94;;;26.06;30.39
6030;BME280;3043;42.682;23.376;2023-03-20T11:40:30;94989.88;;;25.93;30.12
6030;BME280;3043;42.682;23.376;2023-03-20T11:43:03;94979.63;;;25.79;30.05
6030;BME280;3043;42.682;23.376;2023-03-20T11:45:39;94972.09;;;25.84;30.24
6030;BME280;3043;42.682;23.376;2023-03-20T11:48:07;94978.34;;;25.94;30.01
6030;BME280;3043;42.682;23.376;2023-03-20T11:50:44;94963.38;;;25.93;30.21
6030;BME280;3043;42.682;23.376;2023-03-20T11:53:24;94959.78;;;25.42;30.59
6030;BME280;3043;42.682;23.376;2023-03-20T11:56:25;94951.97;;;25.30;30.28
6030;BME280;3043;42.682;23.376;2023-03-20T12:01:21;94949.06;;;25.01;30.87
6030;BME280;3043;42.682;23.376;2023-03-20T12:04:16;94945.88;;;25.18;29.99
6030;BME280;3043;42.682;23.376;2023-03-20T12:07:15;94942.22;;;25.41;29.80
6030;BME280;3043;42.682;23.376;2023-03-20T12:12:17;94931.78;;;24.86;29.94
6030;BME280;3043;42.682;23.376;2023-03-20T12:23:46;94921.69;;;24.69;29.80
6030;BME280;3043;42.682;23.376;2023-03-20T12:31:48;94914.72;;;23.91;29.38
6030;BME280;3043;42.682;23.376;2023-03-20T12:34:25;94908.44;;;23.70;29.08
6030;BME280;3043;42.682;23.376;2023-03-20T12:36:54;94901.41;;;23.47;28.73
6030;BME280;3043;42.682;23.376;2023-03-20T12:39:26;94897.56;;;23.51;29.17
6030;BME280;3043;42.682;23.376;2023-03-20T12:45:16;94896.06;;;23.81;28.54
6030;BME280;3043;42.682;23.376;2023-03-20T12:50:18;94883.38;;;24.08;29.22
6030;BME280;3043;42.682;23.376;2023-03-20T12:58:46;94877.72;;;24.24;26.89
6030;BME280;3043;42.682;23.376;2023-03-20T13:04:37;94861.84;;;24.02;27.89
6030;BME280;3043;42.682;23.376;2023-03-20T13:07:17;94860.41;;;23.98;27.12
6030;BME280;3043;42.682;23.376;2023-03-20T13:15:29;94859.44;;;23.99;26.91
6030;BME280;3043;42.682;23.376;2023-03-20T13:23:19;94845.91;;;23.36;27.94
6030;BME280;3043;42.682;23.376;2023-03-20T13:26:10;94841.94;;;23.30;27.58
6030;BME280;3043;42.682;23.376;2023-03-20T13:28:50;94847.31;;;22.94;26.76
6030;BME280;3043;42.682;23.376;2023-03-20T13:37:12;94834.66;;;23.10;28.16
6030;BME280;3043;42.682;23.376;2023-03-20T13:39:43;94821.19;;;23.02;28.04
6030;BME280;3043;42.682;23.376;2023-03-20T13:42:13;94819.13;;;22.95;28.68
6030;BME280;3043;42.682;23.376;2023-03-20T13:44:42;94818.16;;;22.96;28.23
6030;BME280;3043;42.682;23.376;2023-03-20T13:47:17;94814.59;;;23.08;28.10
6030;BME280;3043;42.682;23.376;2023-03-20T13:52:22;94807.44;;;23.21;28.28
6030;BME280;3043;42.682;23.376;2023-03-20T13:57:52;94806.53;;;23.33;28.42
6030;BME280;3043;42.682;23.376;2023-03-20T14:01:27;94804.28;;;23.16;27.82
6030;BME280;3043;42.682;23.376;2023-03-20T14:03:46;94804.56;;;23.24;27.49
6030;BME280;3043;42.682;23.376;2023-03-20T14:09:24;94799.47;;;23.10;27.99
6030;BME280;3043;42.682;23.376;2023-03-20T14:11:55;94796.59;;;23.13;27.93
6030;BME280;3043;42.682;23.376;2023-03-20T14:17:29;94782.53;;;23.36;27.04
6030;BME280;3043;42.682;23.376;2023-03-20T14:19:57;94786.84;;;23.26;26.82
6030;BME280;3043;42.682;23.376;2023-03-20T14:22:34;94782.59;;;23.23;26.40
6030;BME280;3043;42.682;23.376;2023-03-20T14:25:19;94781.75;;;23.23;25.81
6030;BME280;3043;42.682;23.376;2023-03-20T14:31:10;94771.53;;;23.07;26.24
6030;BME280;3043;42.682;23.376;2023-03-20T14:33:41;94770.91;;;23.04;26.57
6030;BME280;3043;42.682;23.376;2023-03-20T14:36:20;94774.97;;;22.97;27.08
6030;BME280;3043;42.682;23.376;2023-03-20T14:38:54;94765.88;;;23.01;26.75
6030;BME280;3043;42.682;23.376;2023-03-20T14:41:28;94771.19;;;23.23;27.02
6030;BME280;3043;42.682;23.376;2023-03-20T14:52:41;94762.34;;;23.46;26.19
6030;BME280;3043;42.682;23.376;2023-03-20T14:57:42;94765.94;;;23.45;26.51
6030;BME280;3043;42.682;23.376;2023-03-20T15:00:42;94764.28;;;23.33;26.67
6030;BME280;3043;42.682;23.376;2023-03-20T15:03:13;94758.25;;;23.31;26.16
6030;BME280;3043;42.682;23.376;2023-03-20T15:05:39;94761.38;;;23.36;26.17
6030;BME280;3043;42.682;23.376;2023-03-20T15:08:10;94760.13;;;23.18;25.89
6030;BME280;3043;42.682;23.376;2023-03-20T15:10:45;94756.03;;;23.03;26.40
6030;BME280;3043;42.682;23.376;2023-03-20T15:13:12;94763.00;;;23.04;26.20
6030;BME280;3043;42.682;23.376;2023-03-20T15:15:54;94764.19;;;23.00;26.47
6030;BME280;3043;42.682;23.376;2023-03-20T15:18:21;94762.97;;;22.93;26.83
6030;BME280;3043;42.682;23.376;2023-03-20T15:20:47;94759.34;;;22.83;26.67
6030;BME280;3043;42.682;23.376;2023-03-20T15:23:13;94762.44;;;22.76;26.69
6030;BME280;3043;42.682;23.376;2023-03-20T15:25:42;94759.06;;;22.74;26.96
6030;BME280;3043;42.682;23.376;2023-03-20T15:28:16;94758.31;;;22.61;26.78
6030;BME280;3043;42.682;23.376;2023-03-20T15:30:44;94748.47;;;22.52;27.41
6030;BME280;3043;42.682;23.376;2023-03-20T15:35:47;94751.47;;;22.35;27.52
6030;BME280;3043;42.682;23.376;2023-03-20T15:38:15;94752.38;;;22.23;27.31
6030;BME280;3043;42.682;23.376;2023-03-20T15:40:41;94754.94;;;22.12;27.45
6030;BME280;3043;42.682;23.376;2023-03-20T15:43:17;94749.91;;;22.09;27.68
6030;BME280;3043;42.682;23.376;2023-03-20T15:45:43;94752.00;;;22.04;27.51
6030;BME280;3043;42.682;23.376;2023-03-20T15:48:20;94751.75;;;21.96;27.59
6030;BME280;3043;42.682;23.376;2023-03-20T15:50:53;94755.75;;;21.89;28.09
6030;BME280;3043;42.682;23.376;2023-03-20T15:53:28;94755.50;;;21.81;28.54